sensor_id;sensor_type;location;lat;lon;timestamp;P1;durP1;ratioP1;P2;durP2;ratioP2
13975;SDS011;7062;49.792;9.946;2023-12-20T00:01:36;8.10;;;6.03;;
13975;SDS011;7062;49.792;9.946;2023-12-20T00:04:02;6.97;;;6.20;;
13975;SDS011;7062;49.792;9.946;2023-12-20T00:06:28;8.63;;;5.60;;
13975;SDS011;7062;49.792;9.946;2023-12-20T00:08:54;6.13;;;4.80;;
13975;SDS011;7062;49.792;9.946;2023-12-20T00:11:20;6.60;;;5.17;;
13975;SDS011;7062;49.792;9.946;2023-12-20T00:13:46;5.13;;;3.90;;
13975;SDS011;7062;49.792;9.946;2023-12-20T00:16:11;9.13;;;4.33;;
13975;SDS011;7062;49.792;9.946;2023-12-20T00:18:37;7.20;;;4.60;;
13975;SDS011;7062;49.792;9.946;2023-12-20T00:21:03;5.17;;;4.17;;
13975;SDS011;7062;49.792;9.946;2023-12-20T00:23:29;4.57;;;4.13;;
13975;SDS011;7062;49.792;9.946;2023-12-20T00:25:54;7.53;;;4.33;;
13975;SDS011;7062;49.792;9.946;2023-12-20T00:28:20;3.83;;;3.53;;
13975;SDS011;7062;49.792;9.946;2023-12-20T00:30:46;4.93;;;3.93;;
13975;SDS011;7062;49.792;9.946;2023-12-20T00:33:11;3.63;;;3.33;;
13975;SDS011;7062;49.792;9.946;2023-12-20T00:35:37;5.90;;;4.30;;
13975;SDS011;7062;49.792;9.946;2023-12-20T00:38:03;4.23;;;3.27;;
13975;SDS011;7062;49.792;9.946;2023-12-20T00:40:30;4.40;;;3.10;;
13975;SDS011;7062;49.792;9.946;2023-12-20T00:42:55;4.00;;;2.47;;
13975;SDS011;7062;49.792;9.946;2023-12-20T00:45:21;2.53;;;2.27;;
13975;SDS011;7062;49.792;9.946;2023-12-20T00:47:47;3.00;;;2.40;;
13975;SDS011;7062;49.792;9.946;2023-12-20T00:50:12;2.73;;;2.10;;
13975;SDS011;7062;49.792;9.946;2023-12-20T00:52:38;3.87;;;1.90;;
13975;SDS011;7062;49.792;9.946;2023-12-20T00:55:04;2.50;;;1.50;;
13975;SDS011;7062;49.792;9.946;2023-12-20T00:57:30;3.27;;;1.50;;
13975;SDS011;7062;49.792;9.946;2023-12-20T00:59:56;2.33;;;1.03;;
13975;SDS011;7062;49.792;9.946;2023-12-20T01:02:21;1.60;;;1.07;;
13975;SDS011;7062;49.792;9.946;2023-12-20T01:04:47;0.90;;;0.67;;
13975;SDS011;7062;49.792;9.946;2023-12-20T01:07:13;1.00;;;0.80;;
13975;SDS011;7062;49.792;9.946;2023-12-20T01:09:38;0.90;;;0.90;;
13975;SDS011;7062;49.792;9.946;2023-12-20T01:12:04;1.60;;;1.00;;
13975;SDS011;7062;49.792;9.946;2023-12-20T01:14:30;1.27;;;0.90;;
13975;SDS011;7062;49.792;9.946;2023-12-20T01:16:55;0.73;;;0.50;;
13975;SDS011;7062;49.792;9.946;2023-12-20T01:19:21;1.37;;;0.70;;
13975;SDS011;7062;49.792;9.946;2023-12-20T01:21:47;0.70;;;0.53;;
13975;SDS011;7062;49.792;9.946;2023-12-20T01:24:13;0.57;;;0.43;;
13975;SDS011;7062;49.792;9.946;2023-12-20T01:26:38;0.80;;;0.50;;
13975;SDS011;7062;49.792;9.946;2023-12-20T01:29:04;0.67;;;0.67;;
13975;SDS011;7062;49.792;9.946;2023-12-20T01:31:30;0.33;;;0.30;;
13975;SDS011;7062;49.792;9.946;2023-12-20T01:33:55;1.33;;;0.70;;
13975;SDS011;7062;49.792;9.946;2023-12-20T01:36:21;0.40;;;0.30;;
13975;SDS011;7062;49.792;9.946;2023-12-20T01:38:47;0.33;;;0.20;;
13975;SDS011;7062;49.792;9.946;2023-12-20T01:41:12;0.80;;;0.37;;
13975;SDS011;7062;49.792;9.946;2023-12-20T01:43:38;0.97;;;0.30;;
13975;SDS011;7062;49.792;9.946;2023-12-20T01:46:03;0.50;;;0.30;;
13975;SDS011;7062;49.792;9.946;2023-12-20T01:48:30;0.30;;;0.27;;
13975;SDS011;7062;49.792;9.946;2023-12-20T01:50:59;0.50;;;0.40;;
13975;SDS011;7062;49.792;9.946;2023-12-20T01:53:25;0.20;;;0.20;;
13975;SDS011;7062;49.792;9.946;2023-12-20T01:55:52;0.10;;;0.10;;
13975;SDS011;7062;49.792;9.946;2023-12-20T01:58:20;0.33;;;0.30;;
13975;SDS011;7062;49.792;9.946;2023-12-20T02:00:47;0.20;;;0.20;;
13975;SDS011;7062;49.792;9.946;2023-12-20T02:03:13;0.20;;;0.20;;
13975;SDS011;7062;49.792;9.946;2023-12-20T02:05:39;0.10;;;0.10;;
13975;SDS011;7062;49.792;9.946;2023-12-20T02:08:06;0.20;;;0.20;;
13975;SDS011;7062;49.792;9.946;2023-12-20T02:10:32;0.30;;;0.20;;
13975;SDS011;7062;49.792;9.946;2023-12-20T02:12:57;0.30;;;0.30;;
13975;SDS011;7062;49.792;9.946;2023-12-20T02:15:23;0.30;;;0.30;;
13975;SDS011;7062;49.792;9.946;2023-12-20T02:17:49;0.40;;;0.17;;
13975;SDS011;7062;49.792;9.946;2023-12-20T02:20:15;0.47;;;0.20;;
13975;SDS011;7062;49.792;9.946;2023-12-20T02:22:41;0.63;;;0.20;;
13975;SDS011;7062;49.792;9.946;2023-12-20T02:25:07;0.30;;;0.30;;
13975;SDS011;7062;49.792;9.946;2023-12-20T02:27:33;0.47;;;0.20;;
13975;SDS011;7062;49.792;9.946;2023-12-20T02:30:00;1.30;;;0.30;;
13975;SDS011;7062;49.792;9.946;2023-12-20T02:32:25;0.50;;;0.27;;
13975;SDS011;7062;49.792;9.946;2023-12-20T02:34:51;3.03;;;0.27;;
13975;SDS011;7062;49.792;9.946;2023-12-20T02:37:17;0.30;;;0.23;;
13975;SDS011;7062;49.792;9.946;2023-12-20T02:39:43;1.40;;;0.40;;
13975;SDS011;7062;49.792;9.946;2023-12-20T02:42:08;0.33;;;0.23;;
13975;SDS011;7062;49.792;9.946;2023-12-20T02:44:34;0.93;;;0.37;;
13975;SDS011;7062;49.792;9.946;2023-12-20T02:47:00;0.57;;;0.20;;
13975;SDS011;7062;49.792;9.946;2023-12-20T02:49:25;0.20;;;0.20;;
13975;SDS011;7062;49.792;9.946;2023-12-20T02:51:51;0.20;;;0.20;;
13975;SDS011;7062;49.792;9.946;2023-12-20T02:54:16;0.30;;;0.30;;
13975;SDS011;7062;49.792;9.946;2023-12-20T02:56:42;0.20;;;0.20;;
13975;SDS011;7062;49.792;9.946;2023-12-20T02:59:08;0.20;;;0.20;;
13975;SDS011;7062;49.792;9.946;2023-12-20T03:01:34;0.40;;;0.30;;
13975;SDS011;7062;49.792;9.946;2023-12-20T03:04:00;0.30;;;0.30;;
13975;SDS011;7062;49.792;9.946;2023-12-20T03:06:26;1.23;;;0.13;;
13975;SDS011;7062;49.792;9.946;2023-12-20T03:08:52;0.43;;;0.30;;
13975;SDS011;7062;49.792;9.946;2023-12-20T03:11:17;0.40;;;0.20;;
13975;SDS011;7062;49.792;9.946;2023-12-20T03:13:43;0.30;;;0.10;;
13975;SDS011;7062;49.792;9.946;2023-12-20T03:16:09;0.20;;;0.20;;
13975;SDS011;7062;49.792;9.946;2023-12-20T03:18:36;0.10;;;0.10;;
13975;SDS011;7062;49.792;9.946;2023-12-20T03:21:02;1.20;;;0.20;;
13975;SDS011;7062;49.792;9.946;2023-12-20T03:23:28;0.45;;;0.15;;
13975;SDS011;7062;49.792;9.946;2023-12-20T03:25:55;0.20;;;0.20;;
13975;SDS011;7062;49.792;9.946;2023-12-20T03:28:21;0.10;;;0.10;;
13975;SDS011;7062;49.792;9.946;2023-12-20T03:30:48;0.80;;;0.65;;
13975;SDS011;7062;49.792;9.946;2023-12-20T03:33:13;0.53;;;0.10;;
13975;SDS011;7062;49.792;9.946;2023-12-20T03:35:39;0.73;;;0.20;;
13975;SDS011;7062;49.792;9.946;2023-12-20T03:38:05;0.30;;;0.30;;
13975;SDS011;7062;49.792;9.946;2023-12-20T03:40:30;0.20;;;0.20;;
13975;SDS011;7062;49.792;9.946;2023-12-20T03:42:56;0.70;;;0.40;;
13975;SDS011;7062;49.792;9.946;2023-12-20T03:45:22;0.20;;;0.20;;
13975;SDS011;7062;49.792;9.946;2023-12-20T03:47:47;0.13;;;0.10;;
13975;SDS011;7062;49.792;9.946;2023-12-20T03:50:13;0.10;;;0.10;;
13975;SDS011;7062;49.792;9.946;2023-12-20T03:52:39;0.27;;;0.20;;
13975;SDS011;7062;49.792;9.946;2023-12-20T03:55:05;0.97;;;0.20;;
13975;SDS011;7062;49.792;9.946;2023-12-20T03:57:30;0.10;;;0.10;;
13975;SDS011;7062;49.792;9.946;2023-12-20T03:59:56;0.30;;;0.30;;
13975;SDS011;7062;49.792;9.946;2023-12-20T04:02:22;0.10;;;0.10;;
13975;SDS011;7062;49.792;9.946;2023-12-20T04:04:47;0.50;;;0.30;;
13975;SDS011;7062;49.792;9.946;2023-12-20T04:07:13;0.60;;;0.30;;
13975;SDS011;7062;49.792;9.946;2023-12-20T04:09:40;0.70;;;0.30;;
13975;SDS011;7062;49.792;9.946;2023-12-20T04:12:06;0.50;;;0.40;;
13975;SDS011;7062;49.792;9.946;2023-12-20T04:14:32;0.43;;;0.30;;
13975;SDS011;7062;49.792;9.946;2023-12-20T04:16:57;0.37;;;0.37;;
13975;SDS011;7062;49.792;9.946;2023-12-20T04:19:23;0.53;;;0.40;;
13975;SDS011;7062;49.792;9.946;2023-12-20T04:21:49;0.13;;;0.13;;
13975;SDS011;7062;49.792;9.946;2023-12-20T04:24:14;0.43;;;0.20;;
13975;SDS011;7062;49.792;9.946;2023-12-20T04:26:40;0.30;;;0.20;;
13975;SDS011;7062;49.792;9.946;2023-12-20T04:29:06;0.20;;;0.20;;
13975;SDS011;7062;49.792;9.946;2023-12-20T04:31:31;0.17;;;0.10;;
13975;SDS011;7062;49.792;9.946;2023-12-20T04:33:57;0.30;;;0.20;;
13975;SDS011;7062;49.792;9.946;2023-12-20T04:36:22;0.20;;;0.20;;
13975;SDS011;7062;49.792;9.946;2023-12-20T04:38:50;0.20;;;0.20;;
13975;SDS011;7062;49.792;9.946;2023-12-20T04:41:15;0.20;;;0.20;;
13975;SDS011;7062;49.792;9.946;2023-12-20T04:43:43;0.20;;;0.20;;
13975;SDS011;7062;49.792;9.946;2023-12-20T04:46:09;0.10;;;0.10;;
13975;SDS011;7062;49.792;9.946;2023-12-20T04:48:35;0.37;;;0.30;;
13975;SDS011;7062;49.792;9.946;2023-12-20T04:51:01;0.10;;;0.10;;
13975;SDS011;7062;49.792;9.946;2023-12-20T04:53:27;1.70;;;0.30;;
13975;SDS011;7062;49.792;9.946;2023-12-20T04:55:53;0.50;;;0.40;;
13975;SDS011;7062;49.792;9.946;2023-12-20T04:58:18;0.53;;;0.50;;
13975;SDS011;7062;49.792;9.946;2023-12-20T05:00:44;2.63;;;0.30;;
13975;SDS011;7062;49.792;9.946;2023-12-20T05:03:09;1.47;;;0.30;;
13975;SDS011;7062;49.792;9.946;2023-12-20T05:05:35;0.60;;;0.30;;
13975;SDS011;7062;49.792;9.946;2023-12-20T05:08:01;0.77;;;0.40;;
13975;SDS011;7062;49.792;9.946;2023-12-20T05:10:27;0.30;;;0.30;;
13975;SDS011;7062;49.792;9.946;2023-12-20T05:12:53;0.50;;;0.43;;
13975;SDS011;7062;49.792;9.946;2023-12-20T05:15:18;1.40;;;0.40;;
13975;SDS011;7062;49.792;9.946;2023-12-20T05:17:44;0.40;;;0.30;;
13975;SDS011;7062;49.792;9.946;2023-12-20T05:20:10;0.77;;;0.53;;
13975;SDS011;7062;49.792;9.946;2023-12-20T05:22:35;2.73;;;0.70;;
13975;SDS011;7062;49.792;9.946;2023-12-20T05:25:01;0.70;;;0.53;;
13975;SDS011;7062;49.792;9.946;2023-12-20T05:27:27;0.63;;;0.50;;
13975;SDS011;7062;49.792;9.946;2023-12-20T05:29:52;0.60;;;0.50;;
13975;SDS011;7062;49.792;9.946;2023-12-20T05:32:22;0.60;;;0.60;;
13975;SDS011;7062;49.792;9.946;2023-12-20T05:34:48;0.40;;;0.40;;
13975;SDS011;7062;49.792;9.946;2023-12-20T05:37:14;0.20;;;0.20;;
13975;SDS011;7062;49.792;9.946;2023-12-20T05:39:39;0.50;;;0.50;;
13975;SDS011;7062;49.792;9.946;2023-12-20T05:42:05;0.33;;;0.33;;
13975;SDS011;7062;49.792;9.946;2023-12-20T05:44:30;0.30;;;0.30;;
13975;SDS011;7062;49.792;9.946;2023-12-20T05:46:56;1.50;;;0.50;;
13975;SDS011;7062;49.792;9.946;2023-12-20T05:49:22;0.60;;;0.50;;
13975;SDS011;7062;49.792;9.946;2023-12-20T05:51:47;1.97;;;0.50;;
13975;SDS011;7062;49.792;9.946;2023-12-20T05:54:13;2.00;;;0.60;;
13975;SDS011;7062;49.792;9.946;2023-12-20T05:56:39;0.50;;;0.40;;
13975;SDS011;7062;49.792;9.946;2023-12-20T05:59:04;0.53;;;0.50;;
13975;SDS011;7062;49.792;9.946;2023-12-20T06:01:30;0.93;;;0.70;;
13975;SDS011;7062;49.792;9.946;2023-12-20T06:03:56;0.57;;;0.57;;
13975;SDS011;7062;49.792;9.946;2023-12-20T06:06:21;0.50;;;0.47;;
13975;SDS011;7062;49.792;9.946;2023-12-20T06:08:48;0.60;;;0.50;;
13975;SDS011;7062;49.792;9.946;2023-12-20T06:11:13;2.17;;;0.80;;
13975;SDS011;7062;49.792;9.946;2023-12-20T06:13:39;1.67;;;0.50;;
13975;SDS011;7062;49.792;9.946;2023-12-20T06:16:05;0.60;;;0.60;;
13975;SDS011;7062;49.792;9.946;2023-12-20T06:18:34;1.33;;;0.60;;
13975;SDS011;7062;49.792;9.946;2023-12-20T06:21:01;0.60;;;0.60;;
13975;SDS011;7062;49.792;9.946;2023-12-20T06:23:27;0.80;;;0.73;;
13975;SDS011;7062;49.792;9.946;2023-12-20T06:25:53;0.90;;;0.80;;
13975;SDS011;7062;49.792;9.946;2023-12-20T06:28:19;3.07;;;0.80;;
13975;SDS011;7062;49.792;9.946;2023-12-20T06:30:44;1.17;;;0.97;;
13975;SDS011;7062;49.792;9.946;2023-12-20T06:33:12;0.85;;;0.80;;
13975;SDS011;7062;49.792;9.946;2023-12-20T06:35:38;0.98;;;0.88;;
13975;SDS011;7062;49.792;9.946;2023-12-20T06:38:04;2.53;;;0.93;;
13975;SDS011;7062;49.792;9.946;2023-12-20T06:40:29;1.00;;;0.90;;
13975;SDS011;7062;49.792;9.946;2023-12-20T06:42:55;2.47;;;1.17;;
13975;SDS011;7062;49.792;9.946;2023-12-20T06:45:21;0.80;;;0.80;;
13975;SDS011;7062;49.792;9.946;2023-12-20T06:47:46;2.70;;;1.40;;
13975;SDS011;7062;49.792;9.946;2023-12-20T06:50:12;1.73;;;1.20;;
13975;SDS011;7062;49.792;9.946;2023-12-20T06:52:38;1.10;;;0.97;;
13975;SDS011;7062;49.792;9.946;2023-12-20T06:55:03;2.57;;;1.17;;
13975;SDS011;7062;49.792;9.946;2023-12-20T06:57:29;1.70;;;1.60;;
13975;SDS011;7062;49.792;9.946;2023-12-20T06:59:55;3.30;;;1.33;;
13975;SDS011;7062;49.792;9.946;2023-12-20T07:02:21;2.85;;;1.50;;
13975;SDS011;7062;49.792;9.946;2023-12-20T07:04:47;2.03;;;1.60;;
13975;SDS011;7062;49.792;9.946;2023-12-20T07:07:13;2.03;;;1.77;;
13975;SDS011;7062;49.792;9.946;2023-12-20T07:09:38;1.60;;;1.47;;
13975;SDS011;7062;49.792;9.946;2023-12-20T07:12:06;2.00;;;1.80;;
13975;SDS011;7062;49.792;9.946;2023-12-20T07:14:31;1.70;;;1.20;;
13975;SDS011;7062;49.792;9.946;2023-12-20T07:16:57;3.43;;;1.20;;
13975;SDS011;7062;49.792;9.946;2023-12-20T07:19:23;2.37;;;1.30;;
13975;SDS011;7062;49.792;9.946;2023-12-20T07:21:48;4.23;;;1.37;;
13975;SDS011;7062;49.792;9.946;2023-12-20T07:24:14;3.13;;;1.63;;
13975;SDS011;7062;49.792;9.946;2023-12-20T07:26:39;1.80;;;1.40;;
13975;SDS011;7062;49.792;9.946;2023-12-20T07:29:05;1.57;;;1.47;;
13975;SDS011;7062;49.792;9.946;2023-12-20T07:31:31;4.38;;;1.13;;
13975;SDS011;7062;49.792;9.946;2023-12-20T07:33:57;1.67;;;1.07;;
13975;SDS011;7062;49.792;9.946;2023-12-20T07:36:23;1.80;;;1.10;;
13975;SDS011;7062;49.792;9.946;2023-12-20T07:38:49;2.87;;;1.40;;
13975;SDS011;7062;49.792;9.946;2023-12-20T07:41:14;2.70;;;1.43;;
13975;SDS011;7062;49.792;9.946;2023-12-20T07:43:46;1.52;;;1.30;;
13975;SDS011;7062;49.792;9.946;2023-12-20T07:46:11;3.53;;;1.40;;
13975;SDS011;7062;49.792;9.946;2023-12-20T07:48:37;3.13;;;1.30;;
13975;SDS011;7062;49.792;9.946;2023-12-20T07:51:04;2.92;;;1.50;;
13975;SDS011;7062;49.792;9.946;2023-12-20T07:53:32;3.00;;;1.65;;
13975;SDS011;7062;49.792;9.946;2023-12-20T07:55:57;1.53;;;1.27;;
13975;SDS011;7062;49.792;9.946;2023-12-20T07:58:23;3.73;;;1.40;;
13975;SDS011;7062;49.792;9.946;2023-12-20T08:00:49;3.60;;;1.57;;
13975;SDS011;7062;49.792;9.946;2023-12-20T08:03:14;1.93;;;0.90;;
13975;SDS011;7062;49.792;9.946;2023-12-20T08:05:40;5.47;;;1.50;;
13975;SDS011;7062;49.792;9.946;2023-12-20T08:08:06;5.30;;;2.83;;
13975;SDS011;7062;49.792;9.946;2023-12-20T08:10:31;2.33;;;0.90;;
13975;SDS011;7062;49.792;9.946;2023-12-20T08:12:57;2.83;;;1.30;;
13975;SDS011;7062;49.792;9.946;2023-12-20T08:15:22;6.23;;;1.57;;
13975;SDS011;7062;49.792;9.946;2023-12-20T08:17:48;5.57;;;1.50;;
13975;SDS011;7062;49.792;9.946;2023-12-20T08:20:16;6.65;;;1.30;;
13975;SDS011;7062;49.792;9.946;2023-12-20T08:22:42;4.65;;;1.30;;
13975;SDS011;7062;49.792;9.946;2023-12-20T08:25:07;5.97;;;2.90;;
13975;SDS011;7062;49.792;9.946;2023-12-20T08:27:33;2.78;;;1.10;;
13975;SDS011;7062;49.792;9.946;2023-12-20T08:30:03;2.25;;;0.77;;
13975;SDS011;7062;49.792;9.946;2023-12-20T08:32:29;3.83;;;1.55;;
13975;SDS011;7062;49.792;9.946;2023-12-20T08:34:55;5.73;;;1.23;;
13975;SDS011;7062;49.792;9.946;2023-12-20T08:37:21;1.97;;;1.10;;
13975;SDS011;7062;49.792;9.946;2023-12-20T08:39:46;5.40;;;1.03;;
13975;SDS011;7062;49.792;9.946;2023-12-20T08:42:12;4.00;;;1.00;;
13975;SDS011;7062;49.792;9.946;2023-12-20T08:44:37;2.10;;;1.00;;
13975;SDS011;7062;49.792;9.946;2023-12-20T08:47:03;6.23;;;1.33;;
13975;SDS011;7062;49.792;9.946;2023-12-20T08:49:29;1.57;;;0.90;;
13975;SDS011;7062;49.792;9.946;2023-12-20T08:51:54;2.43;;;1.00;;
13975;SDS011;7062;49.792;9.946;2023-12-20T08:54:20;1.33;;;0.70;;
13975;SDS011;7062;49.792;9.946;2023-12-20T08:56:46;3.90;;;2.17;;
13975;SDS011;7062;49.792;9.946;2023-12-20T08:59:12;1.77;;;1.20;;
13975;SDS011;7062;49.792;9.946;2023-12-20T09:01:37;3.40;;;1.40;;
13975;SDS011;7062;49.792;9.946;2023-12-20T09:04:03;6.30;;;1.40;;
13975;SDS011;7062;49.792;9.946;2023-12-20T09:06:29;4.47;;;1.20;;
13975;SDS011;7062;49.792;9.946;2023-12-20T09:08:54;3.60;;;1.37;;
13975;SDS011;7062;49.792;9.946;2023-12-20T09:11:20;8.00;;;1.73;;
13975;SDS011;7062;49.792;9.946;2023-12-20T09:13:46;3.80;;;1.20;;
13975;SDS011;7062;49.792;9.946;2023-12-20T09:16:12;4.13;;;1.10;;
13975;SDS011;7062;49.792;9.946;2023-12-20T09:18:38;2.55;;;0.98;;
13975;SDS011;7062;49.792;9.946;2023-12-20T09:21:04;4.33;;;1.23;;
13975;SDS011;7062;49.792;9.946;2023-12-20T09:23:30;6.63;;;1.00;;
13975;SDS011;7062;49.792;9.946;2023-12-20T09:25:55;2.53;;;1.57;;
13975;SDS011;7062;49.792;9.946;2023-12-20T09:28:21;2.27;;;1.00;;
13975;SDS011;7062;49.792;9.946;2023-12-20T09:30:46;3.60;;;1.17;;
13975;SDS011;7062;49.792;9.946;2023-12-20T09:33:12;2.17;;;1.38;;
13975;SDS011;7062;49.792;9.946;2023-12-20T09:35:39;3.10;;;1.00;;
13975;SDS011;7062;49.792;9.946;2023-12-20T09:38:04;3.27;;;1.07;;
13975;SDS011;7062;49.792;9.946;2023-12-20T09:40:30;3.37;;;2.37;;
13975;SDS011;7062;49.792;9.946;2023-12-20T09:43:08;4.68;;;1.60;;
13975;SDS011;7062;49.792;9.946;2023-12-20T09:45:35;3.60;;;1.35;;
13975;SDS011;7062;49.792;9.946;2023-12-20T09:48:02;6.77;;;0.80;;
13975;SDS011;7062;49.792;9.946;2023-12-20T09:50:30;2.30;;;0.90;;
13975;SDS011;7062;49.792;9.946;2023-12-20T09:52:57;6.30;;;0.90;;
13975;SDS011;7062;49.792;9.946;2023-12-20T09:55:25;3.83;;;1.07;;
13975;SDS011;7062;49.792;9.946;2023-12-20T09:57:54;4.37;;;0.80;;
13975;SDS011;7062;49.792;9.946;2023-12-20T10:00:19;3.80;;;0.90;;
13975;SDS011;7062;49.792;9.946;2023-12-20T10:02:49;3.43;;;0.93;;
13975;SDS011;7062;49.792;9.946;2023-12-20T10:05:22;3.23;;;0.97;;
13975;SDS011;7062;49.792;9.946;2023-12-20T10:07:55;5.87;;;1.00;;
13975;SDS011;7062;49.792;9.946;2023-12-20T10:10:21;3.83;;;0.80;;
13975;SDS011;7062;49.792;9.946;2023-12-20T10:15:29;1.53;;;0.77;;
13975;SDS011;7062;49.792;9.946;2023-12-20T10:17:56;2.27;;;0.63;;
13975;SDS011;7062;49.792;9.946;2023-12-20T10:20:22;2.63;;;0.83;;
13975;SDS011;7062;49.792;9.946;2023-12-20T10:22:47;2.63;;;0.90;;
13975;SDS011;7062;49.792;9.946;2023-12-20T10:25:14;3.97;;;1.20;;
13975;SDS011;7062;49.792;9.946;2023-12-20T10:27:39;3.63;;;1.10;;
13975;SDS011;7062;49.792;9.946;2023-12-20T10:30:05;2.17;;;0.83;;
13975;SDS011;7062;49.792;9.946;2023-12-20T10:32:31;2.33;;;1.13;;
13975;SDS011;7062;49.792;9.946;2023-12-20T10:34:57;3.07;;;1.20;;
13975;SDS011;7062;49.792;9.946;2023-12-20T10:37:24;1.93;;;0.60;;
13975;SDS011;7062;49.792;9.946;2023-12-20T10:39:50;5.60;;;0.97;;
13975;SDS011;7062;49.792;9.946;2023-12-20T10:42:21;10.70;;;1.50;;
13975;SDS011;7062;49.792;9.946;2023-12-20T10:44:48;8.43;;;1.40;;
13975;SDS011;7062;49.792;9.946;2023-12-20T10:47:15;3.23;;;0.90;;
13975;SDS011;7062;49.792;9.946;2023-12-20T10:49:41;3.23;;;1.07;;
13975;SDS011;7062;49.792;9.946;2023-12-20T10:52:09;3.03;;;0.90;;
13975;SDS011;7062;49.792;9.946;2023-12-20T10:54:37;7.47;;;1.67;;
13975;SDS011;7062;49.792;9.946;2023-12-20T10:57:05;8.60;;;1.63;;
13975;SDS011;7062;49.792;9.946;2023-12-20T10:59:32;3.93;;;0.90;;
13975;SDS011;7062;49.792;9.946;2023-12-20T11:02:01;2.80;;;1.00;;
13975;SDS011;7062;49.792;9.946;2023-12-20T11:04:33;4.83;;;1.07;;
13975;SDS011;7062;49.792;9.946;2023-12-20T11:07:29;6.37;;;1.13;;
13975;SDS011;7062;49.792;9.946;2023-12-20T11:10:02;3.83;;;1.33;;
13975;SDS011;7062;49.792;9.946;2023-12-20T11:12:44;3.07;;;1.27;;
13975;SDS011;7062;49.792;9.946;2023-12-20T11:15:16;3.27;;;2.20;;
13975;SDS011;7062;49.792;9.946;2023-12-20T11:17:44;2.70;;;1.20;;
13975;SDS011;7062;49.792;9.946;2023-12-20T11:20:11;5.00;;;1.23;;
13975;SDS011;7062;49.792;9.946;2023-12-20T11:22:37;5.37;;;1.20;;
13975;SDS011;7062;49.792;9.946;2023-12-20T11:27:36;5.33;;;1.10;;
13975;SDS011;7062;49.792;9.946;2023-12-20T11:30:05;7.07;;;1.40;;
13975;SDS011;7062;49.792;9.946;2023-12-20T11:32:33;3.63;;;1.63;;
13975;SDS011;7062;49.792;9.946;2023-12-20T11:37:37;3.97;;;1.43;;
13975;SDS011;7062;49.792;9.946;2023-12-20T11:40:08;4.37;;;1.60;;
13975;SDS011;7062;49.792;9.946;2023-12-20T11:42:39;3.40;;;0.93;;
13975;SDS011;7062;49.792;9.946;2023-12-20T11:45:16;4.33;;;1.30;;
13975;SDS011;7062;49.792;9.946;2023-12-20T11:47:47;7.13;;;1.35;;
13975;SDS011;7062;49.792;9.946;2023-12-20T11:50:18;4.83;;;1.17;;
13975;SDS011;7062;49.792;9.946;2023-12-20T11:52:45;6.37;;;1.67;;
13975;SDS011;7062;49.792;9.946;2023-12-20T11:55:10;4.13;;;1.03;;
13975;SDS011;7062;49.792;9.946;2023-12-20T11:57:36;5.43;;;1.17;;
13975;SDS011;7062;49.792;9.946;2023-12-20T12:00:02;4.67;;;1.47;;
13975;SDS011;7062;49.792;9.946;2023-12-20T12:02:29;3.20;;;1.50;;
13975;SDS011;7062;49.792;9.946;2023-12-20T12:04:55;5.13;;;1.17;;
13975;SDS011;7062;49.792;9.946;2023-12-20T12:07:23;5.77;;;1.27;;
13975;SDS011;7062;49.792;9.946;2023-12-20T12:09:49;4.40;;;1.43;;
13975;SDS011;7062;49.792;9.946;2023-12-20T12:12:14;5.90;;;1.13;;
13975;SDS011;7062;49.792;9.946;2023-12-20T12:14:40;5.53;;;1.17;;
13975;SDS011;7062;49.792;9.946;2023-12-20T12:17:10;4.23;;;1.13;;
13975;SDS011;7062;49.792;9.946;2023-12-20T12:19:39;2.67;;;1.43;;
13975;SDS011;7062;49.792;9.946;2023-12-20T12:22:05;4.87;;;1.47;;
13975;SDS011;7062;49.792;9.946;2023-12-20T12:24:38;4.67;;;0.90;;
13975;SDS011;7062;49.792;9.946;2023-12-20T12:27:07;5.27;;;1.87;;
13975;SDS011;7062;49.792;9.946;2023-12-20T12:29:34;6.20;;;1.43;;
13975;SDS011;7062;49.792;9.946;2023-12-20T12:32:00;7.23;;;1.67;;
13975;SDS011;7062;49.792;9.946;2023-12-20T12:34:29;2.90;;;1.23;;
13975;SDS011;7062;49.792;9.946;2023-12-20T12:36:56;4.70;;;1.10;;
13975;SDS011;7062;49.792;9.946;2023-12-20T12:39:23;5.80;;;1.27;;
13975;SDS011;7062;49.792;9.946;2023-12-20T12:41:55;6.30;;;1.20;;
13975;SDS011;7062;49.792;9.946;2023-12-20T12:44:22;3.37;;;1.23;;
13975;SDS011;7062;49.792;9.946;2023-12-20T12:46:50;4.67;;;1.70;;
13975;SDS011;7062;49.792;9.946;2023-12-20T12:49:16;4.57;;;1.60;;
13975;SDS011;7062;49.792;9.946;2023-12-20T12:51:42;3.97;;;0.97;;
13975;SDS011;7062;49.792;9.946;2023-12-20T12:54:08;3.50;;;1.30;;
13975;SDS011;7062;49.792;9.946;2023-12-20T12:56:35;6.07;;;0.90;;
13975;SDS011;7062;49.792;9.946;2023-12-20T12:59:01;1.80;;;1.10;;
13975;SDS011;7062;49.792;9.946;2023-12-20T13:01:27;5.47;;;1.33;;
13975;SDS011;7062;49.792;9.946;2023-12-20T13:03:53;5.90;;;1.30;;
13975;SDS011;7062;49.792;9.946;2023-12-20T13:06:19;3.30;;;1.00;;
13975;SDS011;7062;49.792;9.946;2023-12-20T13:08:45;3.13;;;1.00;;
13975;SDS011;7062;49.792;9.946;2023-12-20T13:11:10;8.70;;;1.60;;
13975;SDS011;7062;49.792;9.946;2023-12-20T13:13:36;3.00;;;1.30;;
13975;SDS011;7062;49.792;9.946;2023-12-20T13:16:02;3.60;;;1.40;;
13975;SDS011;7062;49.792;9.946;2023-12-20T13:18:27;6.03;;;1.30;;
13975;SDS011;7062;49.792;9.946;2023-12-20T13:20:53;8.13;;;1.60;;
13975;SDS011;7062;49.792;9.946;2023-12-20T13:23:19;3.83;;;1.27;;
13975;SDS011;7062;49.792;9.946;2023-12-20T13:25:44;2.97;;;1.00;;
13975;SDS011;7062;49.792;9.946;2023-12-20T13:28:11;3.57;;;1.53;;
13975;SDS011;7062;49.792;9.946;2023-12-20T13:30:37;9.23;;;1.80;;
13975;SDS011;7062;49.792;9.946;2023-12-20T13:33:04;6.47;;;1.67;;
13975;SDS011;7062;49.792;9.946;2023-12-20T13:35:30;6.23;;;1.57;;
13975;SDS011;7062;49.792;9.946;2023-12-20T13:37:57;4.43;;;1.20;;
13975;SDS011;7062;49.792;9.946;2023-12-20T13:40:23;5.57;;;1.30;;
13975;SDS011;7062;49.792;9.946;2023-12-20T13:42:48;5.23;;;1.47;;
13975;SDS011;7062;49.792;9.946;2023-12-20T13:45:14;4.87;;;1.70;;
13975;SDS011;7062;49.792;9.946;2023-12-20T13:47:40;12.80;;;1.30;;
13975;SDS011;7062;49.792;9.946;2023-12-20T13:50:06;6.73;;;1.57;;
13975;SDS011;7062;49.792;9.946;2023-12-20T13:52:31;4.43;;;1.57;;
13975;SDS011;7062;49.792;9.946;2023-12-20T13:54:57;3.17;;;1.10;;
13975;SDS011;7062;49.792;9.946;2023-12-20T13:57:23;4.37;;;1.10;;
13975;SDS011;7062;49.792;9.946;2023-12-20T13:59:48;4.93;;;1.20;;
13975;SDS011;7062;49.792;9.946;2023-12-20T14:02:14;9.63;;;1.70;;
13975;SDS011;7062;49.792;9.946;2023-12-20T14:04:41;4.87;;;1.20;;
13975;SDS011;7062;49.792;9.946;2023-12-20T14:07:07;4.23;;;1.67;;
13975;SDS011;7062;49.792;9.946;2023-12-20T14:09:33;4.93;;;1.40;;
13975;SDS011;7062;49.792;9.946;2023-12-20T14:11:59;4.93;;;1.67;;
13975;SDS011;7062;49.792;9.946;2023-12-20T14:14:24;5.20;;;1.57;;
13975;SDS011;7062;49.792;9.946;2023-12-20T14:16:50;6.43;;;1.47;;
13975;SDS011;7062;49.792;9.946;2023-12-20T14:19:16;5.60;;;1.13;;
13975;SDS011;7062;49.792;9.946;2023-12-20T14:21:42;5.67;;;1.47;;
13975;SDS011;7062;49.792;9.946;2023-12-20T14:24:10;4.23;;;1.07;;
13975;SDS011;7062;49.792;9.946;2023-12-20T14:26:41;4.47;;;1.23;;
13975;SDS011;7062;49.792;9.946;2023-12-20T14:29:07;5.17;;;1.30;;
13975;SDS011;7062;49.792;9.946;2023-12-20T14:31:33;4.43;;;1.90;;
13975;SDS011;7062;49.792;9.946;2023-12-20T14:33:59;1.93;;;1.47;;
13975;SDS011;7062;49.792;9.946;2023-12-20T14:36:28;4.00;;;1.57;;
13975;SDS011;7062;49.792;9.946;2023-12-20T14:38:55;3.70;;;1.60;;
13975;SDS011;7062;49.792;9.946;2023-12-20T14:41:21;2.87;;;1.00;;
13975;SDS011;7062;49.792;9.946;2023-12-20T14:43:49;2.93;;;1.53;;
13975;SDS011;7062;49.792;9.946;2023-12-20T14:46:16;3.67;;;1.63;;
13975;SDS011;7062;49.792;9.946;2023-12-20T14:48:42;2.53;;;1.10;;
13975;SDS011;7062;49.792;9.946;2023-12-20T14:51:08;7.77;;;1.60;;
13975;SDS011;7062;49.792;9.946;2023-12-20T14:53:34;3.90;;;1.30;;
13975;SDS011;7062;49.792;9.946;2023-12-20T14:56:02;3.60;;;1.53;;
13975;SDS011;7062;49.792;9.946;2023-12-20T14:58:31;7.93;;;1.83;;
13975;SDS011;7062;49.792;9.946;2023-12-20T15:00:57;2.77;;;1.30;;
13975;SDS011;7062;49.792;9.946;2023-12-20T15:03:23;5.93;;;1.70;;